الصفحة الرئيسية
METAR-TAF:

METAR-TAF

مطار :

Kosrae, مايكرونيزيا

دائرة عرض: 05-21N, خط طول: 162-57E, ارتفاع: 3 متر

مراقبة الطقس الحالي

تاريخ ووقت الإصدار 1ساعة و 46 دقيقة قبل الساعة 06:58UTC
ريح 3 عقدةمن اتجاهات متغيرة
درجة الحرارة 27°درجة مئوية
الرطوبة 89%
ضغط 1008 hPa
الرؤية: 16.1 كم
غيوم متفرقة على ارتفاع 1600 قدم
غيوم مفككة على ارتفاع 13000 قدم
ملبد بالغيوم على ارتفاع 30000 قدم

METAR: PTSA 200658Z COR VRB03KT 10SM SCT016 BKN130 OVC300 27/25 A2978 RMK LAST

زمن: 19:44 (08:44 UTC)

توقعات

تاريخ ووقت الإصدار 3ساعات و 24 دقيقة قبل الساعة 05:20UTC
التوقعات صالحة من20 الساعة 06 UTC إلى 21 الساعة 06 UTC
ريح 9 عقدة من الشرق
الرؤية: 10 كم
غيوم متفرقة على ارتفاع 1500 قدم
غيوم متفرقة على ارتفاع 3000 قدم
غيوم مفككة على ارتفاع 10000 قدم
زخات في الجوار
مؤقت
من 20 الساعة 06 UTC إلى 20 الساعة 10 UTC
الرؤية: 6.4 كم
غيوم مفككة على ارتفاع 1200 قدم
ملبد بالغيوم على ارتفاع 10000 قدم
زخات من المطر,

TAF: PTSA 200520Z 2006/2106 09009KT P6SM VCSH SCT015 SCT030 BKN100 TEMPO 2006/2010 4SM SHRA BKN012 OVC100

أرصاد الطقس والتوقعات من أكثر من 4000 مطار (تقارير الطقس للمطار METAR والتنبؤ بالطقس بالمطارTAF).

المحطات المتاحة هي النقط الصفراء والحمراء على الخريطة.

حرك المؤشر فوق النقطة لمعرفة اسم المحطة.

ثم انقر لمعرفة أرصاد وتوقعات الطقس.

لتغيير الخارطة: اضغط على الأزرار الخضراء مع رمز الصليب الأسود للتكبير. على الزر الأخضر مع شرطة للتصغير، أو على الأسهم الخضراء للخرائط المجاورة.


METAR-TAF: